sensor_id;sensor_type;location;lat;lon;timestamp;temperature;humidity
65374;SHT31;52070;53.760;9.678;2023-06-26T00:01:41;19.86;78.35
65374;SHT31;52070;53.760;9.678;2023-06-26T00:04:08;19.83;78.51
65374;SHT31;52070;53.760;9.678;2023-06-26T00:06:40;19.83;78.73
65374;SHT31;52070;53.760;9.678;2023-06-26T00:09:07;19.75;78.93
65374;SHT31;52070;53.760;9.678;2023-06-26T00:11:34;19.71;79.07
65374;SHT31;52070;53.760;9.678;2023-06-26T00:14:01;19.69;79.42
65374;SHT31;52070;53.760;9.678;2023-06-26T00:16:28;19.68;79.49
65374;SHT31;52070;53.760;9.678;2023-06-26T00:18:58;19.69;79.23
65374;SHT31;52070;53.760;9.678;2023-06-26T00:21:25;19.63;79.98
65374;SHT31;52070;53.760;9.678;2023-06-26T00:23:53;19.62;80.09
65374;SHT31;52070;53.760;9.678;2023-06-26T00:26:20;19.61;79.99
65374;SHT31;52070;53.760;9.678;2023-06-26T00:28:47;19.57;80.13
65374;SHT31;52070;53.760;9.678;2023-06-26T00:31:14;19.58;80.28
65374;SHT31;52070;53.760;9.678;2023-06-26T00:33:42;19.58;80.20
65374;SHT31;52070;53.760;9.678;2023-06-26T00:36:10;19.58;80.20
65374;SHT31;52070;53.760;9.678;2023-06-26T00:38:37;19.59;80.64
65374;SHT31;52070;53.760;9.678;2023-06-26T00:41:04;19.59;80.89
65374;SHT31;52070;53.760;9.678;2023-06-26T00:43:38;19.58;81.00
65374;SHT31;52070;53.760;9.678;2023-06-26T00:46:09;19.57;80.93
65374;SHT31;52070;53.760;9.678;2023-06-26T00:48:36;19.54;80.95
65374;SHT31;52070;53.760;9.678;2023-06-26T00:51:04;19.52;81.10
65374;SHT31;52070;53.760;9.678;2023-06-26T00:53:32;19.51;81.21
65374;SHT31;52070;53.760;9.678;2023-06-26T00:56:00;19.54;81.23
65374;SHT31;52070;53.760;9.678;2023-06-26T00:58:28;19.54;81.26
65374;SHT31;52070;53.760;9.678;2023-06-26T01:00:55;19.52;81.42
65374;SHT31;52070;53.760;9.678;2023-06-26T01:03:24;19.48;81.15
65374;SHT31;52070;53.760;9.678;2023-06-26T01:05:52;19.51;80.98
65374;SHT31;52070;53.760;9.678;2023-06-26T01:08:20;19.52;80.97
65374;SHT31;52070;53.760;9.678;2023-06-26T01:10:49;19.52;80.99
65374;SHT31;52070;53.760;9.678;2023-06-26T01:13:16;19.50;80.96
65374;SHT31;52070;53.760;9.678;2023-06-26T01:15:44;19.48;81.09
65374;SHT31;52070;53.760;9.678;2023-06-26T01:18:12;19.45;81.21
65374;SHT31;52070;53.760;9.678;2023-06-26T01:20:42;19.45;81.06
65374;SHT31;52070;53.760;9.678;2023-06-26T01:23:16;19.45;81.40
65374;SHT31;52070;53.760;9.678;2023-06-26T01:28:31;19.32;81.51
65374;SHT31;52070;53.760;9.678;2023-06-26T01:31:02;19.38;81.25
65374;SHT31;52070;53.760;9.678;2023-06-26T01:33:30;19.32;81.56
65374;SHT31;52070;53.760;9.678;2023-06-26T01:35:58;19.27;81.71
65374;SHT31;52070;53.760;9.678;2023-06-26T01:38:25;19.25;81.98
65374;SHT31;52070;53.760;9.678;2023-06-26T01:40:53;19.22;82.01
65374;SHT31;52070;53.760;9.678;2023-06-26T01:43:26;19.21;82.23
65374;SHT31;52070;53.760;9.678;2023-06-26T01:46:00;19.20;82.39
65374;SHT31;52070;53.760;9.678;2023-06-26T01:48:34;19.18;82.41
65374;SHT31;52070;53.760;9.678;2023-06-26T01:51:02;19.20;82.42
65374;SHT31;52070;53.760;9.678;2023-06-26T01:53:35;19.20;82.69
65374;SHT31;52070;53.760;9.678;2023-06-26T01:56:07;19.18;82.69
65374;SHT31;52070;53.760;9.678;2023-06-26T01:58:36;19.18;82.84
65374;SHT31;52070;53.760;9.678;2023-06-26T02:01:05;19.14;82.88
65374;SHT31;52070;53.760;9.678;2023-06-26T02:03:32;19.10;82.96
65374;SHT31;52070;53.760;9.678;2023-06-26T02:05:59;19.11;83.00
65374;SHT31;52070;53.760;9.678;2023-06-26T02:08:26;19.10;82.92
65374;SHT31;52070;53.760;9.678;2023-06-26T02:10:53;19.08;83.11
65374;SHT31;52070;53.760;9.678;2023-06-26T02:13:20;19.07;83.11
65374;SHT31;52070;53.760;9.678;2023-06-26T02:15:48;19.07;82.93
65374;SHT31;52070;53.760;9.678;2023-06-26T02:18:16;19.08;83.13
65374;SHT31;52070;53.760;9.678;2023-06-26T02:20:43;19.07;83.12
65374;SHT31;52070;53.760;9.678;2023-06-26T02:23:10;19.04;83.07
65374;SHT31;52070;53.760;9.678;2023-06-26T02:25:38;19.06;83.16
65374;SHT31;52070;53.760;9.678;2023-06-26T02:28:05;19.06;83.25
65374;SHT31;52070;53.760;9.678;2023-06-26T02:30:32;19.04;82.99
65374;SHT31;52070;53.760;9.678;2023-06-26T02:32:59;18.98;83.24
65374;SHT31;52070;53.760;9.678;2023-06-26T02:35:27;18.96;83.14
65374;SHT31;52070;53.760;9.678;2023-06-26T02:37:55;18.97;83.10
65374;SHT31;52070;53.760;9.678;2023-06-26T02:40:22;18.96;83.30
65374;SHT31;52070;53.760;9.678;2023-06-26T02:42:49;18.96;83.26
65374;SHT31;52070;53.760;9.678;2023-06-26T02:45:16;18.93;83.18
65374;SHT31;52070;53.760;9.678;2023-06-26T02:47:43;18.96;83.13
65374;SHT31;52070;53.760;9.678;2023-06-26T02:50:10;18.96;83.33
65374;SHT31;52070;53.760;9.678;2023-06-26T02:52:38;18.93;83.24
65374;SHT31;52070;53.760;9.678;2023-06-26T02:55:06;18.93;83.23
65374;SHT31;52070;53.760;9.678;2023-06-26T02:57:33;18.90;83.18
65374;SHT31;52070;53.760;9.678;2023-06-26T03:00:00;18.94;83.13
65374;SHT31;52070;53.760;9.678;2023-06-26T03:02:27;18.96;82.83
65374;SHT31;52070;53.760;9.678;2023-06-26T03:04:54;18.93;83.05
65374;SHT31;52070;53.760;9.678;2023-06-26T03:07:23;18.88;83.42
65374;SHT31;52070;53.760;9.678;2023-06-26T03:09:52;18.86;83.65
65374;SHT31;52070;53.760;9.678;2023-06-26T03:12:19;18.84;83.45
65374;SHT31;52070;53.760;9.678;2023-06-26T03:14:46;18.81;83.52
65374;SHT31;52070;53.760;9.678;2023-06-26T03:17:13;18.83;83.65
65374;SHT31;52070;53.760;9.678;2023-06-26T03:19:40;18.83;83.65
65374;SHT31;52070;53.760;9.678;2023-06-26T03:22:07;18.87;83.86
65374;SHT31;52070;53.760;9.678;2023-06-26T03:24:34;18.90;83.59
65374;SHT31;52070;53.760;9.678;2023-06-26T03:27:03;18.90;83.66
65374;SHT31;52070;53.760;9.678;2023-06-26T03:29:30;18.90;83.70
65374;SHT31;52070;53.760;9.678;2023-06-26T03:31:57;18.91;83.82
65374;SHT31;52070;53.760;9.678;2023-06-26T03:34:24;18.93;83.82
65374;SHT31;52070;53.760;9.678;2023-06-26T03:36:51;18.93;83.85
65374;SHT31;52070;53.760;9.678;2023-06-26T03:39:18;18.93;83.81
65374;SHT31;52070;53.760;9.678;2023-06-26T03:41:45;18.93;83.81
65374;SHT31;52070;53.760;9.678;2023-06-26T03:44:13;18.98;83.85
65374;SHT31;52070;53.760;9.678;2023-06-26T03:46:41;18.98;83.71
65374;SHT31;52070;53.760;9.678;2023-06-26T03:49:08;19.03;83.75
65374;SHT31;52070;53.760;9.678;2023-06-26T03:51:36;19.03;83.83
65374;SHT31;52070;53.760;9.678;2023-06-26T03:54:03;19.06;83.80
65374;SHT31;52070;53.760;9.678;2023-06-26T03:56:30;19.08;83.76
65374;SHT31;52070;53.760;9.678;2023-06-26T03:58:57;19.11;83.75
65374;SHT31;52070;53.760;9.678;2023-06-26T04:01:26;19.14;83.64
65374;SHT31;52070;53.760;9.678;2023-06-26T04:03:53;19.17;83.61
65374;SHT31;52070;53.760;9.678;2023-06-26T04:06:20;19.22;83.62
65374;SHT31;52070;53.760;9.678;2023-06-26T04:08:47;19.27;83.52
65374;SHT31;52070;53.760;9.678;2023-06-26T04:11:14;19.27;83.45
65374;SHT31;52070;53.760;9.678;2023-06-26T04:13:41;19.31;83.39
65374;SHT31;52070;53.760;9.678;2023-06-26T04:16:08;19.36;83.45
65374;SHT31;52070;53.760;9.678;2023-06-26T04:18:38;19.41;83.35
65374;SHT31;52070;53.760;9.678;2023-06-26T04:21:07;19.44;83.29
65374;SHT31;52070;53.760;9.678;2023-06-26T04:23:35;19.50;83.29
65374;SHT31;52070;53.760;9.678;2023-06-26T04:26:03;19.55;83.13
65374;SHT31;52070;53.760;9.678;2023-06-26T04:28:30;19.62;83.12
65374;SHT31;52070;53.760;9.678;2023-06-26T04:30:58;19.65;82.97
65374;SHT31;52070;53.760;9.678;2023-06-26T04:33:25;19.66;82.69
65374;SHT31;52070;53.760;9.678;2023-06-26T04:35:53;19.73;82.59
65374;SHT31;52070;53.760;9.678;2023-06-26T04:38:21;19.78;82.93
65374;SHT31;52070;53.760;9.678;2023-06-26T04:40:48;19.87;82.60
65374;SHT31;52070;53.760;9.678;2023-06-26T04:43:15;19.93;82.36
65374;SHT31;52070;53.760;9.678;2023-06-26T04:45:43;20.02;81.99
65374;SHT31;52070;53.760;9.678;2023-06-26T04:48:10;20.12;81.22
65374;SHT31;52070;53.760;9.678;2023-06-26T04:50:37;20.17;81.27
65374;SHT31;52070;53.760;9.678;2023-06-26T04:53:05;20.23;81.32
65374;SHT31;52070;53.760;9.678;2023-06-26T04:55:32;20.30;80.35
65374;SHT31;52070;53.760;9.678;2023-06-26T04:57:59;20.37;80.72
65374;SHT31;52070;53.760;9.678;2023-06-26T05:00:26;20.50;80.10
65374;SHT31;52070;53.760;9.678;2023-06-26T05:02:54;20.56;79.99
65374;SHT31;52070;53.760;9.678;2023-06-26T05:05:26;20.61;79.54
65374;SHT31;52070;53.760;9.678;2023-06-26T05:07:54;20.67;78.94
65374;SHT31;52070;53.760;9.678;2023-06-26T05:10:22;20.80;79.37
65374;SHT31;52070;53.760;9.678;2023-06-26T05:12:50;20.87;78.80
65374;SHT31;52070;53.760;9.678;2023-06-26T05:15:17;21.02;78.62
65374;SHT31;52070;53.760;9.678;2023-06-26T05:17:44;21.08;78.10
65374;SHT31;52070;53.760;9.678;2023-06-26T05:20:12;21.11;78.11
65374;SHT31;52070;53.760;9.678;2023-06-26T05:22:39;21.22;78.55
65374;SHT31;52070;53.760;9.678;2023-06-26T05:25:09;21.25;78.21
65374;SHT31;52070;53.760;9.678;2023-06-26T05:27:38;21.37;77.51
65374;SHT31;52070;53.760;9.678;2023-06-26T05:30:07;21.46;77.41
65374;SHT31;52070;53.760;9.678;2023-06-26T05:32:35;21.55;76.79
65374;SHT31;52070;53.760;9.678;2023-06-26T05:35:03;21.61;76.56
65374;SHT31;52070;53.760;9.678;2023-06-26T05:37:31;21.72;76.82
65374;SHT31;52070;53.760;9.678;2023-06-26T05:39:59;21.78;75.49
65374;SHT31;52070;53.760;9.678;2023-06-26T05:42:27;21.85;74.84
65374;SHT31;52070;53.760;9.678;2023-06-26T05:44:59;21.94;74.66
65374;SHT31;52070;53.760;9.678;2023-06-26T05:47:26;22.03;74.41
65374;SHT31;52070;53.760;9.678;2023-06-26T05:49:53;22.13;73.39
65374;SHT31;52070;53.760;9.678;2023-06-26T05:52:20;22.25;73.45
65374;SHT31;52070;53.760;9.678;2023-06-26T05:54:48;22.32;72.95
65374;SHT31;52070;53.760;9.678;2023-06-26T05:57:15;22.40;73.52
65374;SHT31;52070;53.760;9.678;2023-06-26T05:59:43;22.44;73.50
65374;SHT31;52070;53.760;9.678;2023-06-26T06:02:12;22.54;73.90
65374;SHT31;52070;53.760;9.678;2023-06-26T06:04:39;22.64;72.29
65374;SHT31;52070;53.760;9.678;2023-06-26T06:07:06;22.68;72.10
65374;SHT31;52070;53.760;9.678;2023-06-26T06:09:33;22.78;71.00
65374;SHT31;52070;53.760;9.678;2023-06-26T06:12:00;22.85;71.90
65374;SHT31;52070;53.760;9.678;2023-06-26T06:14:29;22.98;71.63
65374;SHT31;52070;53.760;9.678;2023-06-26T06:16:56;23.05;71.49
65374;SHT31;52070;53.760;9.678;2023-06-26T06:19:24;23.14;71.57
65374;SHT31;52070;53.760;9.678;2023-06-26T06:21:51;23.33;72.21
65374;SHT31;52070;53.760;9.678;2023-06-26T06:24:19;23.39;70.52
65374;SHT31;52070;53.760;9.678;2023-06-26T06:26:46;23.45;68.37
65374;SHT31;52070;53.760;9.678;2023-06-26T06:29:13;23.55;68.88
65374;SHT31;52070;53.760;9.678;2023-06-26T06:31:40;23.59;68.04
65374;SHT31;52070;53.760;9.678;2023-06-26T06:34:07;23.67;69.69
65374;SHT31;52070;53.760;9.678;2023-06-26T06:36:35;23.76;69.16
65374;SHT31;52070;53.760;9.678;2023-06-26T06:39:02;23.83;66.98
65374;SHT31;52070;53.760;9.678;2023-06-26T06:41:30;23.89;67.32
65374;SHT31;52070;53.760;9.678;2023-06-26T06:43:57;24.00;66.96
65374;SHT31;52070;53.760;9.678;2023-06-26T06:46:24;24.07;67.61
65374;SHT31;52070;53.760;9.678;2023-06-26T06:48:52;24.17;68.81
65374;SHT31;52070;53.760;9.678;2023-06-26T06:51:19;24.34;67.28
65374;SHT31;52070;53.760;9.678;2023-06-26T06:53:48;24.47;63.79
65374;SHT31;52070;53.760;9.678;2023-06-26T06:56:15;24.58;63.14
65374;SHT31;52070;53.760;9.678;2023-06-26T06:58:42;24.64;63.66
65374;SHT31;52070;53.760;9.678;2023-06-26T07:01:09;24.69;62.97
65374;SHT31;52070;53.760;9.678;2023-06-26T07:03:36;24.72;63.66
65374;SHT31;52070;53.760;9.678;2023-06-26T07:06:03;24.72;63.19
65374;SHT31;52070;53.760;9.678;2023-06-26T07:08:30;24.78;62.43
65374;SHT31;52070;53.760;9.678;2023-06-26T07:10:58;24.88;61.96
65374;SHT31;52070;53.760;9.678;2023-06-26T07:13:25;24.94;61.74
65374;SHT31;52070;53.760;9.678;2023-06-26T07:15:52;24.95;62.92
65374;SHT31;52070;53.760;9.678;2023-06-26T07:18:19;25.05;62.12
65374;SHT31;52070;53.760;9.678;2023-06-26T07:20:46;25.11;61.42
65374;SHT31;52070;53.760;9.678;2023-06-26T07:23:13;25.26;61.48
65374;SHT31;52070;53.760;9.678;2023-06-26T07:25:40;25.36;59.81
65374;SHT31;52070;53.760;9.678;2023-06-26T07:28:11;25.40;62.17
65374;SHT31;52070;53.760;9.678;2023-06-26T07:30:38;25.51;60.35
65374;SHT31;52070;53.760;9.678;2023-06-26T07:33:05;25.67;58.96
65374;SHT31;52070;53.760;9.678;2023-06-26T07:35:33;25.87;58.18
65374;SHT31;52070;53.760;9.678;2023-06-26T07:38:00;26.01;58.16
65374;SHT31;52070;53.760;9.678;2023-06-26T07:40:27;26.00;56.84
65374;SHT31;52070;53.760;9.678;2023-06-26T07:42:56;26.04;57.65
65374;SHT31;52070;53.760;9.678;2023-06-26T07:45:25;26.05;59.77
65374;SHT31;52070;53.760;9.678;2023-06-26T07:47:52;25.97;58.52
65374;SHT31;52070;53.760;9.678;2023-06-26T07:50:19;25.83;58.40
65374;SHT31;52070;53.760;9.678;2023-06-26T07:52:48;25.90;60.36
65374;SHT31;52070;53.760;9.678;2023-06-26T07:55:15;25.96;59.59
65374;SHT31;52070;53.760;9.678;2023-06-26T07:57:42;26.10;58.98
65374;SHT31;52070;53.760;9.678;2023-06-26T08:00:11;26.13;58.63
65374;SHT31;52070;53.760;9.678;2023-06-26T08:02:40;26.11;58.40
65374;SHT31;52070;53.760;9.678;2023-06-26T08:05:07;26.10;60.56
65374;SHT31;52070;53.760;9.678;2023-06-26T08:07:34;26.16;57.84
65374;SHT31;52070;53.760;9.678;2023-06-26T08:10:01;26.17;58.22
65374;SHT31;52070;53.760;9.678;2023-06-26T08:12:29;26.21;57.80
65374;SHT31;52070;53.760;9.678;2023-06-26T08:14:56;26.25;56.71
65374;SHT31;52070;53.760;9.678;2023-06-26T08:17:23;26.34;56.58
65374;SHT31;52070;53.760;9.678;2023-06-26T08:19:51;26.47;55.52
65374;SHT31;52070;53.760;9.678;2023-06-26T08:22:19;26.47;55.55
65374;SHT31;52070;53.760;9.678;2023-06-26T08:24:46;26.54;56.22
65374;SHT31;52070;53.760;9.678;2023-06-26T08:27:13;26.54;56.83
65374;SHT31;52070;53.760;9.678;2023-06-26T08:29:40;26.59;56.60
65374;SHT31;52070;53.760;9.678;2023-06-26T08:32:07;26.55;56.48
65374;SHT31;52070;53.760;9.678;2023-06-26T08:34:34;26.44;57.10
65374;SHT31;52070;53.760;9.678;2023-06-26T08:37:03;26.37;58.00
65374;SHT31;52070;53.760;9.678;2023-06-26T08:39:30;26.41;57.58
65374;SHT31;52070;53.760;9.678;2023-06-26T08:41:57;26.34;58.59
65374;SHT31;52070;53.760;9.678;2023-06-26T08:44:24;26.41;58.47
65374;SHT31;52070;53.760;9.678;2023-06-26T08:46:51;26.51;58.71
65374;SHT31;52070;53.760;9.678;2023-06-26T08:49:21;26.68;58.69
65374;SHT31;52070;53.760;9.678;2023-06-26T08:51:58;26.96;57.04
65374;SHT31;52070;53.760;9.678;2023-06-26T08:54:29;27.00;57.64
65374;SHT31;52070;53.760;9.678;2023-06-26T08:56:58;27.00;57.96
65374;SHT31;52070;53.760;9.678;2023-06-26T08:59:26;26.76;57.84
65374;SHT31;52070;53.760;9.678;2023-06-26T09:01:54;26.40;58.69
65374;SHT31;52070;53.760;9.678;2023-06-26T09:04:21;25.91;60.91
65374;SHT31;52070;53.760;9.678;2023-06-26T09:06:48;25.04;62.41
65374;SHT31;52070;53.760;9.678;2023-06-26T09:09:15;24.44;64.33
65374;SHT31;52070;53.760;9.678;2023-06-26T09:11:43;23.96;65.50
65374;SHT31;52070;53.760;9.678;2023-06-26T09:14:11;23.70;65.96
65374;SHT31;52070;53.760;9.678;2023-06-26T09:16:41;23.39;66.54
65374;SHT31;52070;53.760;9.678;2023-06-26T09:19:09;23.20;67.29
65374;SHT31;52070;53.760;9.678;2023-06-26T09:21:38;23.09;67.62
65374;SHT31;52070;53.760;9.678;2023-06-26T09:24:06;23.02;67.93
65374;SHT31;52070;53.760;9.678;2023-06-26T09:26:34;23.05;68.35
65374;SHT31;52070;53.760;9.678;2023-06-26T09:29:03;23.12;68.68
65374;SHT31;52070;53.760;9.678;2023-06-26T09:31:31;23.29;68.53
65374;SHT31;52070;53.760;9.678;2023-06-26T09:33:59;23.45;68.25
65374;SHT31;52070;53.760;9.678;2023-06-26T09:36:27;23.58;68.08
65374;SHT31;52070;53.760;9.678;2023-06-26T09:38:55;23.60;68.46
65374;SHT31;52070;53.760;9.678;2023-06-26T09:41:22;23.53;69.21
65374;SHT31;52070;53.760;9.678;2023-06-26T09:43:50;23.38;70.44
65374;SHT31;52070;53.760;9.678;2023-06-26T09:46:24;23.14;71.88
65374;SHT31;52070;53.760;9.678;2023-06-26T09:48:58;22.91;72.86
65374;SHT31;52070;53.760;9.678;2023-06-26T09:51:25;22.78;73.71
65374;SHT31;52070;53.760;9.678;2023-06-26T09:53:52;22.63;74.51
65374;SHT31;52070;53.760;9.678;2023-06-26T09:56:19;22.54;76.27
65374;SHT31;52070;53.760;9.678;2023-06-26T09:58:47;22.18;78.30
65374;SHT31;52070;53.760;9.678;2023-06-26T10:01:15;21.66;80.93
65374;SHT31;52070;53.760;9.678;2023-06-26T10:03:44;21.21;83.34
65374;SHT31;52070;53.760;9.678;2023-06-26T10:06:11;20.98;84.94
65374;SHT31;52070;53.760;9.678;2023-06-26T10:08:39;20.78;85.37
65374;SHT31;52070;53.760;9.678;2023-06-26T10:11:08;20.64;85.74
65374;SHT31;52070;53.760;9.678;2023-06-26T10:13:39;20.47;87.01
65374;SHT31;52070;53.760;9.678;2023-06-26T10:16:09;20.23;87.19
65374;SHT31;52070;53.760;9.678;2023-06-26T10:18:39;20.08;88.44
65374;SHT31;52070;53.760;9.678;2023-06-26T10:21:08;20.06;88.70
65374;SHT31;52070;53.760;9.678;2023-06-26T10:23:36;20.13;89.27
65374;SHT31;52070;53.760;9.678;2023-06-26T10:26:06;20.05;89.53
65374;SHT31;52070;53.760;9.678;2023-06-26T10:28:34;20.02;89.37
65374;SHT31;52070;53.760;9.678;2023-06-26T10:31:03;20.10;89.53
65374;SHT31;52070;53.760;9.678;2023-06-26T10:33:32;20.37;89.79
65374;SHT31;52070;53.760;9.678;2023-06-26T10:36:13;20.56;89.59
65374;SHT31;52070;53.760;9.678;2023-06-26T10:38:51;20.70;89.13
65374;SHT31;52070;53.760;9.678;2023-06-26T10:41:21;20.78;89.50
65374;SHT31;52070;53.760;9.678;2023-06-26T10:43:50;20.47;87.75
65374;SHT31;52070;53.760;9.678;2023-06-26T10:46:18;20.63;88.44
65374;SHT31;52070;53.760;9.678;2023-06-26T10:48:58;20.78;88.66
65374;SHT31;52070;53.760;9.678;2023-06-26T10:51:27;20.53;87.24
65374;SHT31;52070;53.760;9.678;2023-06-26T10:53:55;20.97;87.16
65374;SHT31;52070;53.760;9.678;2023-06-26T10:56:41;21.04;86.84
65374;SHT31;52070;53.760;9.678;2023-06-26T10:59:13;20.90;86.47
65374;SHT31;52070;53.760;9.678;2023-06-26T11:01:41;21.27;86.33
65374;SHT31;52070;53.760;9.678;2023-06-26T11:04:09;21.94;85.13
65374;SHT31;52070;53.760;9.678;2023-06-26T11:06:39;22.32;81.16
65374;SHT31;52070;53.760;9.678;2023-06-26T11:09:08;21.73;80.14
65374;SHT31;52070;53.760;9.678;2023-06-26T11:11:59;20.84;80.08
65374;SHT31;52070;53.760;9.678;2023-06-26T11:14:31;21.07;81.91
65374;SHT31;52070;53.760;9.678;2023-06-26T11:17:02;21.05;82.50
65374;SHT31;52070;53.760;9.678;2023-06-26T11:19:29;20.85;80.24
65374;SHT31;52070;53.760;9.678;2023-06-26T11:22:01;20.92;77.31
65374;SHT31;52070;53.760;9.678;2023-06-26T11:24:29;21.08;77.30
65374;SHT31;52070;53.760;9.678;2023-06-26T11:27:00;21.01;76.03
65374;SHT31;52070;53.760;9.678;2023-06-26T11:29:28;21.37;74.96
65374;SHT31;52070;53.760;9.678;2023-06-26T11:32:03;21.55;75.09
65374;SHT31;52070;53.760;9.678;2023-06-26T11:34:32;21.35;75.95
65374;SHT31;52070;53.760;9.678;2023-06-26T11:37:00;21.34;76.98
65374;SHT31;52070;53.760;9.678;2023-06-26T11:39:30;21.80;72.63
65374;SHT31;52070;53.760;9.678;2023-06-26T11:41:57;22.07;70.95
65374;SHT31;52070;53.760;9.678;2023-06-26T11:44:29;22.40;70.89
65374;SHT31;52070;53.760;9.678;2023-06-26T11:46:56;22.37;67.99
65374;SHT31;52070;53.760;9.678;2023-06-26T11:49:23;22.44;67.93
65374;SHT31;52070;53.760;9.678;2023-06-26T11:51:52;22.02;68.26
65374;SHT31;52070;53.760;9.678;2023-06-26T11:54:26;21.72;68.25
65374;SHT31;52070;53.760;9.678;2023-06-26T11:56:57;21.42;70.73
65374;SHT31;52070;53.760;9.678;2023-06-26T11:59:33;21.90;71.56
65374;SHT31;52070;53.760;9.678;2023-06-26T12:02:04;22.12;70.78
65374;SHT31;52070;53.760;9.678;2023-06-26T12:04:31;22.21;69.17
65374;SHT31;52070;53.760;9.678;2023-06-26T12:06:59;22.61;69.18
65374;SHT31;52070;53.760;9.678;2023-06-26T12:09:31;23.05;68.10
65374;SHT31;52070;53.760;9.678;2023-06-26T12:12:00;23.19;67.54
65374;SHT31;52070;53.760;9.678;2023-06-26T12:14:28;23.12;66.02
65374;SHT31;52070;53.760;9.678;2023-06-26T12:16:55;23.08;67.48
65374;SHT31;52070;53.760;9.678;2023-06-26T12:19:25;23.30;67.14
65374;SHT31;52070;53.760;9.678;2023-06-26T12:21:53;22.79;66.23
65374;SHT31;52070;53.760;9.678;2023-06-26T12:24:23;22.90;65.75
65374;SHT31;52070;53.760;9.678;2023-06-26T12:26:53;22.97;64.89
65374;SHT31;52070;53.760;9.678;2023-06-26T12:29:29;23.01;66.57
65374;SHT31;52070;53.760;9.678;2023-06-26T12:31:56;22.95;64.29
65374;SHT31;52070;53.760;9.678;2023-06-26T12:34:27;22.13;66.80
65374;SHT31;52070;53.760;9.678;2023-06-26T12:37:00;22.21;67.98
65374;SHT31;52070;53.760;9.678;2023-06-26T12:39:28;22.65;65.80
65374;SHT31;52070;53.760;9.678;2023-06-26T12:41:57;22.37;65.62
65374;SHT31;52070;53.760;9.678;2023-06-26T12:44:27;21.99;65.77
65374;SHT31;52070;53.760;9.678;2023-06-26T12:46:55;22.14;66.67
65374;SHT31;52070;53.760;9.678;2023-06-26T12:49:30;22.40;65.32
65374;SHT31;52070;53.760;9.678;2023-06-26T12:51:58;22.32;65.33
65374;SHT31;52070;53.760;9.678;2023-06-26T12:54:25;22.51;65.01
65374;SHT31;52070;53.760;9.678;2023-06-26T12:56:52;22.44;64.03
65374;SHT31;52070;53.760;9.678;2023-06-26T12:59:20;22.63;60.66
65374;SHT31;52070;53.760;9.678;2023-06-26T13:01:47;22.90;61.26
65374;SHT31;52070;53.760;9.678;2023-06-26T13:04:15;22.98;58.89
65374;SHT31;52070;53.760;9.678;2023-06-26T13:06:42;23.28;59.47
65374;SHT31;52070;53.760;9.678;2023-06-26T13:09:11;23.22;60.38
65374;SHT31;52070;53.760;9.678;2023-06-26T13:11:39;23.01;60.85
65374;SHT31;52070;53.760;9.678;2023-06-26T13:14:06;23.20;59.19
65374;SHT31;52070;53.760;9.678;2023-06-26T13:16:34;23.08;58.28
65374;SHT31;52070;53.760;9.678;2023-06-26T13:19:01;22.81;60.46
65374;SHT31;52070;53.760;9.678;2023-06-26T13:21:28;22.60;59.68
65374;SHT31;52070;53.760;9.678;2023-06-26T13:23:55;22.67;59.22
65374;SHT31;52070;53.760;9.678;2023-06-26T13:26:23;22.65;57.51
65374;SHT31;52070;53.760;9.678;2023-06-26T13:28:51;22.36;58.67
65374;SHT31;52070;53.760;9.678;2023-06-26T13:31:18;22.41;60.46
65374;SHT31;52070;53.760;9.678;2023-06-26T13:33:46;22.25;58.81
65374;SHT31;52070;53.760;9.678;2023-06-26T13:36:15;22.77;58.76
65374;SHT31;52070;53.760;9.678;2023-06-26T13:38:42;23.04;57.47
65374;SHT31;52070;53.760;9.678;2023-06-26T13:41:09;22.94;56.55
65374;SHT31;52070;53.760;9.678;2023-06-26T13:43:36;23.11;58.07
65374;SHT31;52070;53.760;9.678;2023-06-26T13:46:03;22.84;56.87
65374;SHT31;52070;53.760;9.678;2023-06-26T13:48:30;22.53;58.09
65374;SHT31;52070;53.760;9.678;2023-06-26T13:50:58;22.25;56.97
65374;SHT31;52070;53.760;9.678;2023-06-26T13:53:25;22.29;59.88
65374;SHT31;52070;53.760;9.678;2023-06-26T13:55:52;22.41;60.20
65374;SHT31;52070;53.760;9.678;2023-06-26T13:58:19;22.41;57.93
65374;SHT31;52070;53.760;9.678;2023-06-26T14:00:50;22.16;59.11
65374;SHT31;52070;53.760;9.678;2023-06-26T14:03:17;22.07;59.62
65374;SHT31;52070;53.760;9.678;2023-06-26T14:05:44;22.10;60.18
65374;SHT31;52070;53.760;9.678;2023-06-26T14:08:12;22.18;59.59
65374;SHT31;52070;53.760;9.678;2023-06-26T14:10:39;22.04;60.89
65374;SHT31;52070;53.760;9.678;2023-06-26T14:13:06;22.23;59.21
65374;SHT31;52070;53.760;9.678;2023-06-26T14:15:34;22.24;58.84
65374;SHT31;52070;53.760;9.678;2023-06-26T14:18:02;22.09;59.56
65374;SHT31;52070;53.760;9.678;2023-06-26T14:20:30;22.02;60.29
65374;SHT31;52070;53.760;9.678;2023-06-26T14:22:58;21.99;60.24
65374;SHT31;52070;53.760;9.678;2023-06-26T14:25:27;22.20;62.35
65374;SHT31;52070;53.760;9.678;2023-06-26T14:27:55;21.89;60.10
65374;SHT31;52070;53.760;9.678;2023-06-26T14:30:22;21.55;60.95
65374;SHT31;52070;53.760;9.678;2023-06-26T14:32:49;21.51;61.79
65374;SHT31;52070;53.760;9.678;2023-06-26T14:35:16;21.24;60.87
65374;SHT31;52070;53.760;9.678;2023-06-26T14:37:44;21.02;61.75
65374;SHT31;52070;53.760;9.678;2023-06-26T14:40:12;20.87;63.32
65374;SHT31;52070;53.760;9.678;2023-06-26T14:42:41;20.73;63.04
65374;SHT31;52070;53.760;9.678;2023-06-26T14:45:10;20.83;64.01
65374;SHT31;52070;53.760;9.678;2023-06-26T14:47:37;20.91;63.69
65374;SHT31;52070;53.760;9.678;2023-06-26T14:50:05;20.95;63.58
65374;SHT31;52070;53.760;9.678;2023-06-26T14:52:33;20.99;63.89
65374;SHT31;52070;53.760;9.678;2023-06-26T14:55:00;20.99;64.99
65374;SHT31;52070;53.760;9.678;2023-06-26T14:57:27;20.81;64.08
65374;SHT31;52070;53.760;9.678;2023-06-26T14:59:55;20.81;65.80
65374;SHT31;52070;53.760;9.678;2023-06-26T15:02:22;20.68;65.26
65374;SHT31;52070;53.760;9.678;2023-06-26T15:04:49;20.74;66.00
65374;SHT31;52070;53.760;9.678;2023-06-26T15:07:16;20.90;66.59
65374;SHT31;52070;53.760;9.678;2023-06-26T15:09:43;20.80;67.56
65374;SHT31;52070;53.760;9.678;2023-06-26T15:12:10;20.67;68.29
65374;SHT31;52070;53.760;9.678;2023-06-26T15:14:38;20.77;68.35
65374;SHT31;52070;53.760;9.678;2023-06-26T15:17:06;20.81;66.83
65374;SHT31;52070;53.760;9.678;2023-06-26T15:19:34;20.68;67.46
65374;SHT31;52070;53.760;9.678;2023-06-26T15:22:01;20.43;67.33
65374;SHT31;52070;53.760;9.678;2023-06-26T15:24:28;20.32;68.48
65374;SHT31;52070;53.760;9.678;2023-06-26T15:26:55;20.34;69.19
65374;SHT31;52070;53.760;9.678;2023-06-26T15:29:23;20.30;69.39
65374;SHT31;52070;53.760;9.678;2023-06-26T15:31:50;20.30;69.94
65374;SHT31;52070;53.760;9.678;2023-06-26T15:34:18;20.53;69.51
65374;SHT31;52070;53.760;9.678;2023-06-26T15:36:45;20.78;67.52
65374;SHT31;52070;53.760;9.678;2023-06-26T15:39:12;21.17;67.76